In Rescue
 
Open Full Screen Window  High Contrast Mode
July 13, 2020 11:05 PM EDT
Weather Information
Wind Direction
  ---
Wind Speed
  00 kt (0 mph)
Wind Gust
  00 kt (0 mph)
Altimeter
30.00 in
Visibility
10 SM
Temperature
16° C
61° F
Dewpoint
15° C
59° F
Humidity
94%
Sky Condition
Clear
VFR

METAR KCVX 140305Z AUTO 00000KT 10SM CLR 16/15 A3000 RMK AO2 T01620146

FAA Disclaimer: The data displayed is for advisory purposes only and is not to be used for flight planning or operations.